sensor_id;sensor_type;location;lat;lon;timestamp;temperature;humidity
20167;DHT22;10243;49.118;8.508;2022-10-31T00:01:19;14.20;99.90
20167;DHT22;10243;49.118;8.508;2022-10-31T00:04:21;14.30;99.90
20167;DHT22;10243;49.118;8.508;2022-10-31T00:07:23;14.20;99.90
20167;DHT22;10243;49.118;8.508;2022-10-31T00:10:26;14.30;99.90
20167;DHT22;10243;49.118;8.508;2022-10-31T00:13:28;14.20;99.90
20167;DHT22;10243;49.118;8.508;2022-10-31T00:16:30;14.20;99.90
20167;DHT22;10243;49.118;8.508;2022-10-31T00:19:31;14.20;99.90
20167;DHT22;10243;49.118;8.508;2022-10-31T00:22:33;14.10;99.90
20167;DHT22;10243;49.118;8.508;2022-10-31T00:25:38;14.00;99.90
20167;DHT22;10243;49.118;8.508;2022-10-31T00:28:40;13.80;99.90
20167;DHT22;10243;49.118;8.508;2022-10-31T00:31:42;13.70;99.90
20167;DHT22;10243;49.118;8.508;2022-10-31T00:34:43;13.80;99.90
20167;DHT22;10243;49.118;8.508;2022-10-31T00:37:45;13.80;99.90
20167;DHT22;10243;49.118;8.508;2022-10-31T00:40:48;13.90;99.90
20167;DHT22;10243;49.118;8.508;2022-10-31T00:43:50;14.00;99.90
20167;DHT22;10243;49.118;8.508;2022-10-31T00:46:52;13.90;99.90
20167;DHT22;10243;49.118;8.508;2022-10-31T00:49:56;13.90;99.90
20167;DHT22;10243;49.118;8.508;2022-10-31T00:52:58;13.90;99.90
20167;DHT22;10243;49.118;8.508;2022-10-31T00:56:01;13.80;99.90
20167;DHT22;10243;49.118;8.508;2022-10-31T00:59:04;13.70;99.90
20167;DHT22;10243;49.118;8.508;2022-10-31T01:02:05;13.60;99.90
20167;DHT22;10243;49.118;8.508;2022-10-31T01:05:08;13.50;99.90
20167;DHT22;10243;49.118;8.508;2022-10-31T01:08:11;13.30;99.90
20167;DHT22;10243;49.118;8.508;2022-10-31T01:11:16;13.30;99.90
20167;DHT22;10243;49.118;8.508;2022-10-31T01:14:18;13.30;99.90
20167;DHT22;10243;49.118;8.508;2022-10-31T01:17:20;13.30;99.90
20167;DHT22;10243;49.118;8.508;2022-10-31T01:20:22;13.20;99.90
20167;DHT22;10243;49.118;8.508;2022-10-31T01:23:24;13.10;99.90
20167;DHT22;10243;49.118;8.508;2022-10-31T01:26:28;13.10;99.90
20167;DHT22;10243;49.118;8.508;2022-10-31T01:29:31;13.20;99.90
20167;DHT22;10243;49.118;8.508;2022-10-31T01:32:33;13.30;99.90
20167;DHT22;10243;49.118;8.508;2022-10-31T01:35:35;13.50;99.90
20167;DHT22;10243;49.118;8.508;2022-10-31T01:38:37;13.60;99.90
20167;DHT22;10243;49.118;8.508;2022-10-31T01:41:42;13.40;99.90
20167;DHT22;10243;49.118;8.508;2022-10-31T01:44:56;13.20;99.90
20167;DHT22;10243;49.118;8.508;2022-10-31T01:48:00;13.20;99.90
20167;DHT22;10243;49.118;8.508;2022-10-31T01:51:02;13.20;99.90
20167;DHT22;10243;49.118;8.508;2022-10-31T01:54:08;13.00;99.90
20167;DHT22;10243;49.118;8.508;2022-10-31T01:57:14;12.90;99.90
20167;DHT22;10243;49.118;8.508;2022-10-31T02:00:19;12.80;99.90
20167;DHT22;10243;49.118;8.508;2022-10-31T02:03:22;12.80;99.90
20167;DHT22;10243;49.118;8.508;2022-10-31T02:06:31;12.90;99.90
20167;DHT22;10243;49.118;8.508;2022-10-31T02:09:36;13.00;99.90
20167;DHT22;10243;49.118;8.508;2022-10-31T02:12:40;13.20;99.90
20167;DHT22;10243;49.118;8.508;2022-10-31T02:15:47;13.20;99.90
20167;DHT22;10243;49.118;8.508;2022-10-31T02:18:49;13.10;99.90
20167;DHT22;10243;49.118;8.508;2022-10-31T02:21:55;12.90;99.90
20167;DHT22;10243;49.118;8.508;2022-10-31T02:25:12;12.70;99.90
20167;DHT22;10243;49.118;8.508;2022-10-31T02:28:41;12.70;99.90
20167;DHT22;10243;49.118;8.508;2022-10-31T02:31:56;12.60;99.90
20167;DHT22;10243;49.118;8.508;2022-10-31T02:35:07;12.70;99.90
20167;DHT22;10243;49.118;8.508;2022-10-31T02:38:20;12.90;99.90
20167;DHT22;10243;49.118;8.508;2022-10-31T02:41:31;13.10;99.90
20167;DHT22;10243;49.118;8.508;2022-10-31T02:44:45;13.10;99.90
20167;DHT22;10243;49.118;8.508;2022-10-31T02:47:54;13.00;99.90
20167;DHT22;10243;49.118;8.508;2022-10-31T02:51:00;13.10;99.90
20167;DHT22;10243;49.118;8.508;2022-10-31T02:54:03;13.20;99.90
20167;DHT22;10243;49.118;8.508;2022-10-31T02:57:07;13.30;99.90
20167;DHT22;10243;49.118;8.508;2022-10-31T03:00:10;13.40;99.90
20167;DHT22;10243;49.118;8.508;2022-10-31T03:03:17;13.40;99.90
20167;DHT22;10243;49.118;8.508;2022-10-31T03:06:26;13.20;99.90
20167;DHT22;10243;49.118;8.508;2022-10-31T03:09:36;12.90;99.90
20167;DHT22;10243;49.118;8.508;2022-10-31T03:12:49;12.80;99.90
20167;DHT22;10243;49.118;8.508;2022-10-31T03:15:59;12.80;99.90
20167;DHT22;10243;49.118;8.508;2022-10-31T03:19:08;12.70;99.90
20167;DHT22;10243;49.118;8.508;2022-10-31T03:22:16;12.60;99.90
20167;DHT22;10243;49.118;8.508;2022-10-31T03:25:19;12.60;99.90
20167;DHT22;10243;49.118;8.508;2022-10-31T03:28:25;12.70;99.90
20167;DHT22;10243;49.118;8.508;2022-10-31T03:31:31;12.80;99.90
20167;DHT22;10243;49.118;8.508;2022-10-31T03:34:37;12.80;99.90
20167;DHT22;10243;49.118;8.508;2022-10-31T03:37:41;12.90;99.90
20167;DHT22;10243;49.118;8.508;2022-10-31T03:40:51;12.80;99.90
20167;DHT22;10243;49.118;8.508;2022-10-31T03:43:59;12.60;99.90
20167;DHT22;10243;49.118;8.508;2022-10-31T03:47:03;12.60;99.90
20167;DHT22;10243;49.118;8.508;2022-10-31T03:50:08;12.70;99.90
20167;DHT22;10243;49.118;8.508;2022-10-31T03:53:14;12.90;99.90
20167;DHT22;10243;49.118;8.508;2022-10-31T03:56:24;13.00;99.90
20167;DHT22;10243;49.118;8.508;2022-10-31T03:59:33;13.00;99.90
20167;DHT22;10243;49.118;8.508;2022-10-31T04:02:40;13.00;99.90
20167;DHT22;10243;49.118;8.508;2022-10-31T04:05:45;13.20;99.90
20167;DHT22;10243;49.118;8.508;2022-10-31T04:08:51;13.10;99.90
20167;DHT22;10243;49.118;8.508;2022-10-31T04:11:56;13.20;99.90
20167;DHT22;10243;49.118;8.508;2022-10-31T04:15:09;13.20;99.90
20167;DHT22;10243;49.118;8.508;2022-10-31T04:18:13;13.10;99.90
20167;DHT22;10243;49.118;8.508;2022-10-31T04:21:17;12.80;99.90
20167;DHT22;10243;49.118;8.508;2022-10-31T04:24:19;12.60;99.90
20167;DHT22;10243;49.118;8.508;2022-10-31T04:27:20;12.70;99.90
20167;DHT22;10243;49.118;8.508;2022-10-31T04:30:22;12.80;99.90
20167;DHT22;10243;49.118;8.508;2022-10-31T04:33:24;13.00;99.90
20167;DHT22;10243;49.118;8.508;2022-10-31T04:36:27;12.60;99.90
20167;DHT22;10243;49.118;8.508;2022-10-31T04:39:30;12.40;99.90
20167;DHT22;10243;49.118;8.508;2022-10-31T04:42:54;12.30;99.90
20167;DHT22;10243;49.118;8.508;2022-10-31T04:45:56;12.20;99.90
20167;DHT22;10243;49.118;8.508;2022-10-31T04:48:58;12.20;99.90
20167;DHT22;10243;49.118;8.508;2022-10-31T04:52:02;12.20;99.90
20167;DHT22;10243;49.118;8.508;2022-10-31T04:55:04;12.30;99.90
20167;DHT22;10243;49.118;8.508;2022-10-31T04:58:25;12.40;99.90
20167;DHT22;10243;49.118;8.508;2022-10-31T05:01:26;12.60;99.90
20167;DHT22;10243;49.118;8.508;2022-10-31T05:04:29;12.60;99.90
20167;DHT22;10243;49.118;8.508;2022-10-31T05:07:33;12.50;99.90
20167;DHT22;10243;49.118;8.508;2022-10-31T05:10:35;12.40;99.90
20167;DHT22;10243;49.118;8.508;2022-10-31T05:13:38;12.20;99.90
20167;DHT22;10243;49.118;8.508;2022-10-31T05:16:46;12.20;99.90
20167;DHT22;10243;49.118;8.508;2022-10-31T05:20:07;12.20;99.90
20167;DHT22;10243;49.118;8.508;2022-10-31T05:23:28;11.80;99.90
20167;DHT22;10243;49.118;8.508;2022-10-31T05:26:30;11.90;99.90
20167;DHT22;10243;49.118;8.508;2022-10-31T05:29:33;11.90;99.90
20167;DHT22;10243;49.118;8.508;2022-10-31T05:32:38;12.00;99.90
20167;DHT22;10243;49.118;8.508;2022-10-31T05:36:04;12.10;99.90
20167;DHT22;10243;49.118;8.508;2022-10-31T05:39:14;12.20;99.90
20167;DHT22;10243;49.118;8.508;2022-10-31T05:42:20;12.30;99.90
20167;DHT22;10243;49.118;8.508;2022-10-31T05:45:22;12.30;99.90
20167;DHT22;10243;49.118;8.508;2022-10-31T05:48:29;12.50;99.90
20167;DHT22;10243;49.118;8.508;2022-10-31T05:51:51;12.60;99.90
20167;DHT22;10243;49.118;8.508;2022-10-31T05:54:59;12.60;99.90
20167;DHT22;10243;49.118;8.508;2022-10-31T05:58:03;12.40;99.90
20167;DHT22;10243;49.118;8.508;2022-10-31T06:01:06;12.10;99.90
20167;DHT22;10243;49.118;8.508;2022-10-31T06:04:08;12.00;99.90
20167;DHT22;10243;49.118;8.508;2022-10-31T06:07:11;12.00;99.90
20167;DHT22;10243;49.118;8.508;2022-10-31T06:10:14;12.20;99.90
20167;DHT22;10243;49.118;8.508;2022-10-31T06:13:16;12.20;99.90
20167;DHT22;10243;49.118;8.508;2022-10-31T06:16:22;12.00;99.90
20167;DHT22;10243;49.118;8.508;2022-10-31T06:19:25;11.70;99.90
20167;DHT22;10243;49.118;8.508;2022-10-31T06:22:27;11.60;99.90
20167;DHT22;10243;49.118;8.508;2022-10-31T06:25:30;11.60;99.90
20167;DHT22;10243;49.118;8.508;2022-10-31T06:28:38;11.60;99.90
20167;DHT22;10243;49.118;8.508;2022-10-31T06:31:51;11.60;99.90
20167;DHT22;10243;49.118;8.508;2022-10-31T06:34:53;11.80;99.90
20167;DHT22;10243;49.118;8.508;2022-10-31T06:37:55;11.90;99.90
20167;DHT22;10243;49.118;8.508;2022-10-31T06:41:06;12.00;99.90
20167;DHT22;10243;49.118;8.508;2022-10-31T06:44:21;12.20;99.90
20167;DHT22;10243;49.118;8.508;2022-10-31T06:47:29;12.30;99.90
20167;DHT22;10243;49.118;8.508;2022-10-31T06:50:35;12.50;99.90
20167;DHT22;10243;49.118;8.508;2022-10-31T06:53:37;12.60;99.90
20167;DHT22;10243;49.118;8.508;2022-10-31T06:56:42;12.80;99.90
20167;DHT22;10243;49.118;8.508;2022-10-31T06:59:44;13.00;99.90
20167;DHT22;10243;49.118;8.508;2022-10-31T07:03:07;13.10;99.90
20167;DHT22;10243;49.118;8.508;2022-10-31T07:09:13;13.30;99.90
20167;DHT22;10243;49.118;8.508;2022-10-31T07:12:16;13.10;99.90
20167;DHT22;10243;49.118;8.508;2022-10-31T07:15:29;12.90;99.90
20167;DHT22;10243;49.118;8.508;2022-10-31T07:18:34;12.80;99.90
20167;DHT22;10243;49.118;8.508;2022-10-31T07:21:36;12.90;99.90
20167;DHT22;10243;49.118;8.508;2022-10-31T07:24:38;12.90;99.90
20167;DHT22;10243;49.118;8.508;2022-10-31T07:28:05;12.90;99.90
20167;DHT22;10243;49.118;8.508;2022-10-31T07:31:07;13.00;99.90
20167;DHT22;10243;49.118;8.508;2022-10-31T07:34:08;13.10;99.90
20167;DHT22;10243;49.118;8.508;2022-10-31T07:37:40;13.10;99.90
20167;DHT22;10243;49.118;8.508;2022-10-31T07:40:42;13.30;99.90
20167;DHT22;10243;49.118;8.508;2022-10-31T07:43:45;13.30;99.90
20167;DHT22;10243;49.118;8.508;2022-10-31T07:46:47;13.30;99.90
20167;DHT22;10243;49.118;8.508;2022-10-31T07:50:09;13.50;99.90
20167;DHT22;10243;49.118;8.508;2022-10-31T07:53:43;13.60;99.90
20167;DHT22;10243;49.118;8.508;2022-10-31T07:56:56;13.70;99.90
20167;DHT22;10243;49.118;8.508;2022-10-31T07:59:59;13.70;99.90
20167;DHT22;10243;49.118;8.508;2022-10-31T08:03:04;13.80;99.90
20167;DHT22;10243;49.118;8.508;2022-10-31T08:06:41;13.90;99.90
20167;DHT22;10243;49.118;8.508;2022-10-31T08:09:55;14.00;99.90
20167;DHT22;10243;49.118;8.508;2022-10-31T08:13:02;14.10;99.90
20167;DHT22;10243;49.118;8.508;2022-10-31T08:16:07;14.10;99.90
20167;DHT22;10243;49.118;8.508;2022-10-31T08:19:16;14.20;99.90
20167;DHT22;10243;49.118;8.508;2022-10-31T08:22:18;14.30;99.90
20167;DHT22;10243;49.118;8.508;2022-10-31T08:25:20;14.40;99.90
20167;DHT22;10243;49.118;8.508;2022-10-31T08:28:21;14.50;99.90
20167;DHT22;10243;49.118;8.508;2022-10-31T08:31:28;14.60;99.90
20167;DHT22;10243;49.118;8.508;2022-10-31T08:34:49;14.70;99.90
20167;DHT22;10243;49.118;8.508;2022-10-31T08:38:10;14.80;99.90
20167;DHT22;10243;49.118;8.508;2022-10-31T08:41:13;14.80;99.90
20167;DHT22;10243;49.118;8.508;2022-10-31T08:44:16;14.90;99.90
20167;DHT22;10243;49.118;8.508;2022-10-31T08:47:19;15.00;99.90
20167;DHT22;10243;49.118;8.508;2022-10-31T08:50:22;15.10;99.90
20167;DHT22;10243;49.118;8.508;2022-10-31T08:53:24;15.20;99.90
20167;DHT22;10243;49.118;8.508;2022-10-31T08:56:38;15.30;99.90
20167;DHT22;10243;49.118;8.508;2022-10-31T08:59:53;15.40;99.90
20167;DHT22;10243;49.118;8.508;2022-10-31T09:03:03;15.50;99.90
20167;DHT22;10243;49.118;8.508;2022-10-31T09:06:07;15.50;99.90
20167;DHT22;10243;49.118;8.508;2022-10-31T09:09:09;15.50;99.90
20167;DHT22;10243;49.118;8.508;2022-10-31T09:12:11;15.60;99.90
20167;DHT22;10243;49.118;8.508;2022-10-31T09:15:33;15.60;99.90
20167;DHT22;10243;49.118;8.508;2022-10-31T09:19:08;15.90;99.90
20167;DHT22;10243;49.118;8.508;2022-10-31T09:22:10;15.90;99.90
20167;DHT22;10243;49.118;8.508;2022-10-31T09:25:12;16.00;99.90
20167;DHT22;10243;49.118;8.508;2022-10-31T09:28:18;16.00;99.90
20167;DHT22;10243;49.118;8.508;2022-10-31T09:31:20;16.00;99.90
20167;DHT22;10243;49.118;8.508;2022-10-31T09:34:29;16.00;99.90
20167;DHT22;10243;49.118;8.508;2022-10-31T09:37:39;15.90;99.90
20167;DHT22;10243;49.118;8.508;2022-10-31T09:40:44;15.90;99.90
20167;DHT22;10243;49.118;8.508;2022-10-31T09:43:50;15.90;99.90
20167;DHT22;10243;49.118;8.508;2022-10-31T09:46:57;16.10;99.90
20167;DHT22;10243;49.118;8.508;2022-10-31T09:50:13;16.10;99.90
20167;DHT22;10243;49.118;8.508;2022-10-31T09:53:22;16.10;99.90
20167;DHT22;10243;49.118;8.508;2022-10-31T09:56:25;16.10;99.90
20167;DHT22;10243;49.118;8.508;2022-10-31T09:59:36;16.10;99.90
20167;DHT22;10243;49.118;8.508;2022-10-31T10:02:41;16.10;99.90
20167;DHT22;10243;49.118;8.508;2022-10-31T10:05:53;16.10;99.90
20167;DHT22;10243;49.118;8.508;2022-10-31T10:09:08;16.10;99.90
20167;DHT22;10243;49.118;8.508;2022-10-31T10:12:39;16.30;99.90
20167;DHT22;10243;49.118;8.508;2022-10-31T10:16:00;16.30;99.90
20167;DHT22;10243;49.118;8.508;2022-10-31T10:19:18;16.20;99.90
20167;DHT22;10243;49.118;8.508;2022-10-31T10:22:28;16.10;99.90
20167;DHT22;10243;49.118;8.508;2022-10-31T10:25:37;16.10;99.90
20167;DHT22;10243;49.118;8.508;2022-10-31T10:28:43;16.10;99.90
20167;DHT22;10243;49.118;8.508;2022-10-31T10:31:47;16.20;99.90
20167;DHT22;10243;49.118;8.508;2022-10-31T10:34:53;16.30;99.90
20167;DHT22;10243;49.118;8.508;2022-10-31T10:38:02;16.30;99.90
20167;DHT22;10243;49.118;8.508;2022-10-31T10:41:12;16.30;99.90
20167;DHT22;10243;49.118;8.508;2022-10-31T10:44:14;16.40;99.90
20167;DHT22;10243;49.118;8.508;2022-10-31T10:47:16;16.50;99.90
20167;DHT22;10243;49.118;8.508;2022-10-31T10:50:40;16.50;99.90
20167;DHT22;10243;49.118;8.508;2022-10-31T10:53:53;16.60;99.90
20167;DHT22;10243;49.118;8.508;2022-10-31T10:57:27;16.60;99.90
20167;DHT22;10243;49.118;8.508;2022-10-31T11:00:32;16.80;99.90
20167;DHT22;10243;49.118;8.508;2022-10-31T11:03:36;16.90;99.90
20167;DHT22;10243;49.118;8.508;2022-10-31T11:06:38;17.00;99.90
20167;DHT22;10243;49.118;8.508;2022-10-31T11:09:41;17.50;99.90
20167;DHT22;10243;49.118;8.508;2022-10-31T11:12:44;17.60;99.90
20167;DHT22;10243;49.118;8.508;2022-10-31T11:15:54;17.80;99.90
20167;DHT22;10243;49.118;8.508;2022-10-31T11:19:08;17.90;99.90
20167;DHT22;10243;49.118;8.508;2022-10-31T11:22:16;18.00;99.90
20167;DHT22;10243;49.118;8.508;2022-10-31T11:25:25;18.10;99.90
20167;DHT22;10243;49.118;8.508;2022-10-31T11:28:28;17.90;99.90
20167;DHT22;10243;49.118;8.508;2022-10-31T11:31:31;18.00;99.90
20167;DHT22;10243;49.118;8.508;2022-10-31T11:34:35;18.00;99.90
20167;DHT22;10243;49.118;8.508;2022-10-31T11:37:42;18.20;99.90
20167;DHT22;10243;49.118;8.508;2022-10-31T11:40:54;18.30;99.90
20167;DHT22;10243;49.118;8.508;2022-10-31T11:43:59;18.40;99.90
20167;DHT22;10243;49.118;8.508;2022-10-31T11:47:03;18.40;99.90
20167;DHT22;10243;49.118;8.508;2022-10-31T11:50:10;18.50;99.90
20167;DHT22;10243;49.118;8.508;2022-10-31T11:53:16;18.50;99.90
20167;DHT22;10243;49.118;8.508;2022-10-31T11:56:19;18.40;99.90
20167;DHT22;10243;49.118;8.508;2022-10-31T11:59:25;18.60;99.90
20167;DHT22;10243;49.118;8.508;2022-10-31T12:02:28;18.70;99.90
20167;DHT22;10243;49.118;8.508;2022-10-31T12:05:31;18.70;99.90
20167;DHT22;10243;49.118;8.508;2022-10-31T12:08:36;18.80;99.90
20167;DHT22;10243;49.118;8.508;2022-10-31T12:11:50;18.90;99.90
20167;DHT22;10243;49.118;8.508;2022-10-31T12:15:04;18.90;99.90
20167;DHT22;10243;49.118;8.508;2022-10-31T12:18:36;18.80;99.90
20167;DHT22;10243;49.118;8.508;2022-10-31T12:21:56;18.70;99.90
20167;DHT22;10243;49.118;8.508;2022-10-31T12:25:10;18.70;99.90
20167;DHT22;10243;49.118;8.508;2022-10-31T12:28:34;18.90;99.90
20167;DHT22;10243;49.118;8.508;2022-10-31T12:31:51;18.90;99.90
20167;DHT22;10243;49.118;8.508;2022-10-31T12:35:06;18.90;99.90
20167;DHT22;10243;49.118;8.508;2022-10-31T12:38:23;18.90;99.90
20167;DHT22;10243;49.118;8.508;2022-10-31T12:41:38;18.90;99.90
20167;DHT22;10243;49.118;8.508;2022-10-31T12:44:58;19.00;99.90
20167;DHT22;10243;49.118;8.508;2022-10-31T12:48:22;19.00;99.90
20167;DHT22;10243;49.118;8.508;2022-10-31T12:51:33;19.20;99.90
20167;DHT22;10243;49.118;8.508;2022-10-31T12:54:53;19.20;99.90
20167;DHT22;10243;49.118;8.508;2022-10-31T12:58:02;19.10;99.90
20167;DHT22;10243;49.118;8.508;2022-10-31T13:01:10;19.00;99.90
20167;DHT22;10243;49.118;8.508;2022-10-31T13:04:17;19.10;99.90
20167;DHT22;10243;49.118;8.508;2022-10-31T13:07:24;19.00;99.90
20167;DHT22;10243;49.118;8.508;2022-10-31T13:10:29;19.00;99.90
20167;DHT22;10243;49.118;8.508;2022-10-31T13:13:36;19.00;99.90
20167;DHT22;10243;49.118;8.508;2022-10-31T13:16:44;19.10;99.90
20167;DHT22;10243;49.118;8.508;2022-10-31T13:19:47;19.30;99.90
20167;DHT22;10243;49.118;8.508;2022-10-31T13:22:51;19.40;99.90
20167;DHT22;10243;49.118;8.508;2022-10-31T13:25:56;19.50;99.90
20167;DHT22;10243;49.118;8.508;2022-10-31T13:29:12;19.60;99.90
20167;DHT22;10243;49.118;8.508;2022-10-31T13:32:19;19.70;99.90
20167;DHT22;10243;49.118;8.508;2022-10-31T13:35:31;19.70;99.90
20167;DHT22;10243;49.118;8.508;2022-10-31T13:38:40;19.70;99.90
20167;DHT22;10243;49.118;8.508;2022-10-31T13:41:48;19.70;99.90
20167;DHT22;10243;49.118;8.508;2022-10-31T13:44:51;19.60;99.90
20167;DHT22;10243;49.118;8.508;2022-10-31T13:47:58;19.50;99.90
20167;DHT22;10243;49.118;8.508;2022-10-31T13:51:03;19.50;99.90
20167;DHT22;10243;49.118;8.508;2022-10-31T13:54:19;19.50;99.90
20167;DHT22;10243;49.118;8.508;2022-10-31T13:57:29;19.40;99.90
20167;DHT22;10243;49.118;8.508;2022-10-31T14:00:32;19.40;99.90
20167;DHT22;10243;49.118;8.508;2022-10-31T14:03:39;19.30;99.90
20167;DHT22;10243;49.118;8.508;2022-10-31T14:06:46;19.30;99.90
20167;DHT22;10243;49.118;8.508;2022-10-31T14:09:55;19.40;99.90
20167;DHT22;10243;49.118;8.508;2022-10-31T14:13:04;19.30;99.90
20167;DHT22;10243;49.118;8.508;2022-10-31T14:16:18;19.20;99.90
20167;DHT22;10243;49.118;8.508;2022-10-31T14:19:23;19.10;99.90
20167;DHT22;10243;49.118;8.508;2022-10-31T14:22:29;19.10;99.90
20167;DHT22;10243;49.118;8.508;2022-10-31T14:25:33;19.10;99.90
20167;DHT22;10243;49.118;8.508;2022-10-31T14:28:37;19.00;99.90
20167;DHT22;10243;49.118;8.508;2022-10-31T14:31:56;19.00;99.90
20167;DHT22;10243;49.118;8.508;2022-10-31T14:35:03;18.80;99.90
20167;DHT22;10243;49.118;8.508;2022-10-31T14:38:20;18.80;99.90
20167;DHT22;10243;49.118;8.508;2022-10-31T14:41:40;18.80;99.90
20167;DHT22;10243;49.118;8.508;2022-10-31T14:48:39;18.80;99.90
20167;DHT22;10243;49.118;8.508;2022-10-31T14:51:47;18.80;99.90
20167;DHT22;10243;49.118;8.508;2022-10-31T14:54:52;18.90;99.90
20167;DHT22;10243;49.118;8.508;2022-10-31T14:57:57;18.80;99.90
20167;DHT22;10243;49.118;8.508;2022-10-31T15:01:04;18.80;99.90
20167;DHT22;10243;49.118;8.508;2022-10-31T15:04:13;18.70;99.90
20167;DHT22;10243;49.118;8.508;2022-10-31T15:07:19;18.80;99.90
20167;DHT22;10243;49.118;8.508;2022-10-31T15:10:24;18.90;99.90
20167;DHT22;10243;49.118;8.508;2022-10-31T15:13:26;18.80;99.90
20167;DHT22;10243;49.118;8.508;2022-10-31T15:16:32;18.80;99.90
20167;DHT22;10243;49.118;8.508;2022-10-31T15:19:36;18.60;99.90
20167;DHT22;10243;49.118;8.508;2022-10-31T15:22:40;18.50;99.90
20167;DHT22;10243;49.118;8.508;2022-10-31T15:25:42;18.50;99.90
20167;DHT22;10243;49.118;8.508;2022-10-31T15:28:44;18.50;99.90
20167;DHT22;10243;49.118;8.508;2022-10-31T15:31:50;18.50;99.90
20167;DHT22;10243;49.118;8.508;2022-10-31T15:34:53;18.40;99.90
20167;DHT22;10243;49.118;8.508;2022-10-31T15:37:58;18.40;99.90
20167;DHT22;10243;49.118;8.508;2022-10-31T15:41:04;18.30;99.90
20167;DHT22;10243;49.118;8.508;2022-10-31T15:44:14;18.20;99.90
20167;DHT22;10243;49.118;8.508;2022-10-31T15:47:18;18.20;99.90
20167;DHT22;10243;49.118;8.508;2022-10-31T15:50:24;18.20;99.90
20167;DHT22;10243;49.118;8.508;2022-10-31T15:53:35;18.20;99.90
20167;DHT22;10243;49.118;8.508;2022-10-31T15:56:38;18.10;99.90
20167;DHT22;10243;49.118;8.508;2022-10-31T15:59:45;18.00;99.90
20167;DHT22;10243;49.118;8.508;2022-10-31T16:02:49;18.00;99.90
20167;DHT22;10243;49.118;8.508;2022-10-31T16:06:00;18.00;99.90
20167;DHT22;10243;49.118;8.508;2022-10-31T16:09:22;17.90;99.90
20167;DHT22;10243;49.118;8.508;2022-10-31T16:12:29;17.80;99.90
20167;DHT22;10243;49.118;8.508;2022-10-31T16:15:31;17.70;99.90
20167;DHT22;10243;49.118;8.508;2022-10-31T16:18:36;17.70;99.90
20167;DHT22;10243;49.118;8.508;2022-10-31T16:21:39;17.70;99.90
20167;DHT22;10243;49.118;8.508;2022-10-31T16:24:47;17.70;99.90
20167;DHT22;10243;49.118;8.508;2022-10-31T16:27:52;17.70;99.90
20167;DHT22;10243;49.118;8.508;2022-10-31T16:30:55;17.70;99.90
20167;DHT22;10243;49.118;8.508;2022-10-31T16:34:11;17.60;99.90
20167;DHT22;10243;49.118;8.508;2022-10-31T16:37:14;17.40;99.90
20167;DHT22;10243;49.118;8.508;2022-10-31T16:40:17;17.50;99.90
20167;DHT22;10243;49.118;8.508;2022-10-31T16:43:20;17.50;99.90
20167;DHT22;10243;49.118;8.508;2022-10-31T16:46:26;17.20;99.90
20167;DHT22;10243;49.118;8.508;2022-10-31T16:49:28;17.20;99.90
20167;DHT22;10243;49.118;8.508;2022-10-31T16:52:37;17.30;99.90
20167;DHT22;10243;49.118;8.508;2022-10-31T16:55:44;17.20;99.90
20167;DHT22;10243;49.118;8.508;2022-10-31T16:58:46;17.20;99.90
20167;DHT22;10243;49.118;8.508;2022-10-31T17:01:51;17.30;99.90
20167;DHT22;10243;49.118;8.508;2022-10-31T17:04:56;17.30;99.90
20167;DHT22;10243;49.118;8.508;2022-10-31T17:07:57;17.30;99.90
20167;DHT22;10243;49.118;8.508;2022-10-31T17:11:01;17.30;99.90
20167;DHT22;10243;49.118;8.508;2022-10-31T17:14:03;17.20;99.90
20167;DHT22;10243;49.118;8.508;2022-10-31T17:17:07;17.20;99.90
20167;DHT22;10243;49.118;8.508;2022-10-31T17:20:17;17.00;99.90
20167;DHT22;10243;49.118;8.508;2022-10-31T17:23:19;17.00;99.90
20167;DHT22;10243;49.118;8.508;2022-10-31T17:26:23;16.90;99.90
20167;DHT22;10243;49.118;8.508;2022-10-31T17:29:24;16.70;99.90
20167;DHT22;10243;49.118;8.508;2022-10-31T17:32:26;16.70;99.90
20167;DHT22;10243;49.118;8.508;2022-10-31T17:35:28;16.80;99.90
20167;DHT22;10243;49.118;8.508;2022-10-31T17:38:30;16.80;99.90
20167;DHT22;10243;49.118;8.508;2022-10-31T17:41:33;16.90;99.90
20167;DHT22;10243;49.118;8.508;2022-10-31T17:44:35;16.90;99.90
20167;DHT22;10243;49.118;8.508;2022-10-31T17:47:37;16.90;99.90
20167;DHT22;10243;49.118;8.508;2022-10-31T17:50:39;16.90;99.90
20167;DHT22;10243;49.118;8.508;2022-10-31T17:53:43;16.90;99.90
20167;DHT22;10243;49.118;8.508;2022-10-31T17:56:47;16.70;99.90
20167;DHT22;10243;49.118;8.508;2022-10-31T17:59:48;16.50;99.90
20167;DHT22;10243;49.118;8.508;2022-10-31T18:02:50;16.20;99.90
20167;DHT22;10243;49.118;8.508;2022-10-31T18:05:53;16.30;99.90
20167;DHT22;10243;49.118;8.508;2022-10-31T18:08:55;16.50;99.90
20167;DHT22;10243;49.118;8.508;2022-10-31T18:11:59;16.50;99.90
20167;DHT22;10243;49.118;8.508;2022-10-31T18:15:01;16.50;99.90
20167;DHT22;10243;49.118;8.508;2022-10-31T18:18:03;16.60;99.90
20167;DHT22;10243;49.118;8.508;2022-10-31T18:21:07;16.30;99.90
20167;DHT22;10243;49.118;8.508;2022-10-31T18:24:09;16.30;99.90
20167;DHT22;10243;49.118;8.508;2022-10-31T18:27:12;16.40;99.90
20167;DHT22;10243;49.118;8.508;2022-10-31T18:30:14;16.50;99.90
20167;DHT22;10243;49.118;8.508;2022-10-31T18:33:17;16.40;99.90
20167;DHT22;10243;49.118;8.508;2022-10-31T18:36:19;16.50;99.90
20167;DHT22;10243;49.118;8.508;2022-10-31T18:39:21;16.50;99.90
20167;DHT22;10243;49.118;8.508;2022-10-31T18:42:24;16.50;99.90
20167;DHT22;10243;49.118;8.508;2022-10-31T18:45:26;16.40;99.90
20167;DHT22;10243;49.118;8.508;2022-10-31T18:48:28;16.50;99.90
20167;DHT22;10243;49.118;8.508;2022-10-31T18:51:31;16.40;99.90
20167;DHT22;10243;49.118;8.508;2022-10-31T18:54:32;16.30;99.90
20167;DHT22;10243;49.118;8.508;2022-10-31T18:57:36;16.30;99.90
20167;DHT22;10243;49.118;8.508;2022-10-31T19:00:38;16.30;99.90
20167;DHT22;10243;49.118;8.508;2022-10-31T19:03:40;16.40;99.90
20167;DHT22;10243;49.118;8.508;2022-10-31T19:06:42;16.30;99.90
20167;DHT22;10243;49.118;8.508;2022-10-31T19:09:44;16.40;99.90
20167;DHT22;10243;49.118;8.508;2022-10-31T19:12:50;16.30;99.90
20167;DHT22;10243;49.118;8.508;2022-10-31T19:15:52;16.30;99.90
20167;DHT22;10243;49.118;8.508;2022-10-31T19:18:54;16.30;99.90
20167;DHT22;10243;49.118;8.508;2022-10-31T19:21:56;16.40;99.90
20167;DHT22;10243;49.118;8.508;2022-10-31T19:24:58;16.40;99.90
20167;DHT22;10243;49.118;8.508;2022-10-31T19:28:01;16.40;99.90
20167;DHT22;10243;49.118;8.508;2022-10-31T19:31:04;16.30;99.90
20167;DHT22;10243;49.118;8.508;2022-10-31T19:34:06;16.30;99.90
20167;DHT22;10243;49.118;8.508;2022-10-31T19:37:08;16.40;99.90
20167;DHT22;10243;49.118;8.508;2022-10-31T19:40:10;16.40;99.90
20167;DHT22;10243;49.118;8.508;2022-10-31T19:43:14;16.30;99.90
20167;DHT22;10243;49.118;8.508;2022-10-31T19:46:17;16.30;99.90